Time;durP1;ratioP1;P1;durP2;ratioP2;P2;SDS_P1;SDS_P2;PMS_P1;PMS_P2;Temp;Humidity;BMP_temperature;BMP_pressure;BME280_temperature;BME280_humidity;BME280_pressure;Samples;Min_cycle;Max_cycle;Signal;HPM_P1;HPM_P2
2022/02/05 00:01:38;;;;;;;38.53;21.33;;;;;;;4.06;76.12;98076.90;2281402;78;21396;-82
2022/02/05 00:04:34;;;;;;;44.60;21.17;;;;;;;4.07;76.17;98077.35;2280584;77;21037;-82
2022/02/05 00:07:39;;;;;;;41.40;20.60;;;;;;;4.07;76.13;98065.73;2281766;78;20938;-83
2022/02/05 00:14:23;;;;;;;36.57;20.63;;;;;;;4.06;76.09;98063.98;2281986;78;21065;-83
2022/02/05 00:33:14;;;;;;;37.57;20.17;;;;;;;4.07;76.23;98072.19;2281062;78;21009;-83
2022/02/05 00:40:03;;;;;;;34.00;19.27;;;;;;;4.15;75.89;98032.80;2281733;78;20946;-83
2022/02/05 00:42:55;;;;;;;37.93;18.77;;;;;;;4.18;75.79;98024.66;2279550;78;21041;-83
2022/02/05 00:45:57;;;;;;;35.00;18.50;;;;;;;4.19;75.75;98025.13;2280160;78;21025;-82
2022/02/05 00:48:57;;;;;;;33.50;18.60;;;;;;;4.20;75.68;98025.16;2280760;78;20989;-83
2022/02/05 00:52:07;;;;;;;29.60;16.13;;;;;;;4.20;75.63;98021.28;2280687;78;20923;-82
2022/02/05 00:58:06;;;;;;;33.20;17.67;;;;;;;4.21;75.47;98029.48;2259998;78;20985;-83
2022/02/05 01:01:06;;;;;;;31.07;17.17;;;;;;;4.21;75.63;98027.32;2281602;78;20907;-83
2022/02/05 01:04:07;;;;;;;32.53;17.97;;;;;;;4.23;75.48;98025.23;2281388;78;21033;-84
2022/02/05 01:07:07;;;;;;;29.27;16.47;;;;;;;4.25;75.59;98025.27;2281585;78;20966;-83
2022/02/05 01:10:08;;;;;;;33.53;17.83;;;;;;;4.26;75.63;98025.30;2281606;78;21270;-84
2022/02/05 01:13:11;;;;;;;35.97;19.10;;;;;;;4.25;75.66;98026.14;2281234;78;21398;-83
2022/02/05 01:16:22;;;;;;;29.03;16.40;;;;;;;4.24;75.90;98026.10;2280465;78;21349;-83
2022/02/05 01:19:50;;;;;;;35.43;17.53;;;;;;;4.23;76.01;98019.19;2279287;78;20922;-83
2022/02/05 01:22:19;;;;;;;34.87;19.27;;;;;;;4.22;76.13;98003.23;2277513;78;20950;-83
2022/02/05 01:25:24;;;;;;;35.20;19.87;;;;;;;4.22;76.35;98000.66;2280993;78;21001;-83
2022/02/05 01:28:28;;;;;;;28.70;17.53;;;;;;;4.22;76.46;98000.23;2286546;78;21071;-84
2022/02/05 01:31:28;;;;;;;33.13;17.87;;;;;;;4.23;76.58;98007.56;2289743;77;21754;-82
2022/02/05 01:34:40;;;;;;;31.07;18.30;;;;;;;4.21;76.69;98003.66;2289936;77;21075;-83
2022/02/05 01:57:21;;;;;;;33.97;19.23;;;;;;;4.07;77.72;98002.04;2268294;78;21426;-83
2022/02/05 02:07:03;;;;;;;32.60;17.80;;;;;;;4.01;78.01;97982.95;2291852;77;20975;-83
2022/02/05 02:12:59;;;;;;;30.87;18.37;;;;;;;3.99;78.33;97988.08;2288215;77;21043;-82
2022/02/05 02:16:10;;;;;;;29.73;18.33;;;;;;;3.99;78.35;97985.48;2289426;77;21008;-82
2022/02/05 02:19:12;;;;;;;30.13;18.73;;;;;;;4.00;78.38;97988.95;2289300;77;20980;-83
2022/02/05 02:22:09;;;;;;;33.37;18.70;;;;;;;4.03;78.36;98001.93;2289598;77;21395;-83
2022/02/05 02:25:11;;;;;;;30.37;17.80;;;;;;;4.06;78.38;98000.71;2290601;77;21019;-82
2022/02/05 02:28:16;;;;;;;27.53;17.67;;;;;;;4.10;78.64;98002.53;2286215;77;21480;-82
2022/02/05 02:31:17;;;;;;;36.17;19.20;;;;;;;4.10;78.98;98004.70;2280733;78;20965;-82
2022/02/05 02:34:19;;;;;;;27.80;16.87;;;;;;;4.12;79.00;98010.77;2272029;78;21438;-82
2022/02/05 02:37:25;;;;;;;23.47;15.60;;;;;;;4.14;79.20;98015.55;2279763;78;20998;-81
2022/02/05 02:43:29;;;;;;;26.73;17.50;;;;;;;4.14;79.33;98004.34;2259924;78;20938;-81
2022/02/05 02:46:28;;;;;;;26.83;16.57;;;;;;;4.15;79.48;97998.34;2280774;78;21413;-81
2022/02/05 02:49:56;;;;;;;27.07;16.27;;;;;;;4.14;79.68;98000.47;2281943;78;20891;-82
2022/02/05 02:59:46;;;;;;;23.37;15.63;;;;;;;4.16;79.57;97989.34;2282041;78;20955;-83
2022/02/05 03:02:32;;;;;;;23.40;14.57;;;;;;;4.18;79.66;97993.25;2279602;77;20998;-83
2022/02/05 03:05:33;;;;;;;24.80;14.63;;;;;;;4.20;79.56;97988.99;2281241;78;21017;-84
2022/02/05 03:08:33;;;;;;;23.00;14.57;;;;;;;4.22;79.57;97991.61;2280402;78;20980;-83
2022/02/05 03:11:34;;;;;;;21.50;13.70;;;;;;;4.25;79.54;97990.39;2281747;78;20950;-84
2022/02/05 03:14:34;;;;;;;16.13;12.30;;;;;;;4.25;79.52;97990.39;2282275;78;20898;-84
2022/02/05 03:17:53;;;;;;;19.33;13.20;;;;;;;4.27;79.65;97996.46;2282351;78;20946;-84
2022/02/05 03:20:43;;;;;;;19.70;13.07;;;;;;;4.27;79.56;97997.34;2280425;77;20918;-83
2022/02/05 03:23:43;;;;;;;18.37;12.67;;;;;;;4.27;79.65;97990.88;2281861;78;21296;-81
2022/02/05 03:26:44;;;;;;;21.87;13.77;;;;;;;4.26;79.74;97998.17;2281514;78;20942;-82
2022/02/05 03:29:47;;;;;;;19.47;13.00;;;;;;;4.25;79.61;98001.59;2281147;78;21034;-83
2022/02/05 03:32:47;;;;;;;19.17;12.47;;;;;;;4.24;79.85;97991.23;2281101;77;20950;-83
2022/02/05 03:35:47;;;;;;;20.97;13.57;;;;;;;4.23;79.89;97998.11;2281257;78;21408;-83
2022/02/05 03:38:48;;;;;;;17.00;12.10;;;;;;;4.22;79.91;97991.19;2280769;78;20926;-82
2022/02/05 03:41:48;;;;;;;16.73;12.33;;;;;;;4.23;79.88;98001.11;2281304;78;21321;-83
2022/02/05 03:44:49;;;;;;;16.97;12.07;;;;;;;4.24;79.84;98003.72;2281772;78;21277;-83
2022/02/05 03:47:51;;;;;;;21.07;12.80;;;;;;;4.24;79.88;98002.44;2281327;78;21364;-83
2022/02/05 03:50:52;;;;;;;16.50;12.20;;;;;;;4.24;79.82;98011.48;2282178;78;21397;-81
2022/02/05 03:53:52;;;;;;;23.47;13.57;;;;;;;4.25;79.92;98015.80;2282226;78;20953;-83
2022/02/05 03:56:53;;;;;;;17.43;10.90;;;;;;;4.27;79.94;98008.09;2282117;78;21333;-83
2022/02/05 03:59:53;;;;;;;15.80;10.87;;;;;;;4.30;79.78;98018.50;2281864;78;20919;-83
2022/02/05 04:02:54;;;;;;;13.53;11.00;;;;;;;4.32;79.70;98014.23;2281839;78;21366;-81
2022/02/05 04:05:54;;;;;;;12.77;10.77;;;;;;;4.36;79.60;98013.50;2281924;78;21025;-83
2022/02/05 04:08:58;;;;;;;16.23;11.07;;;;;;;4.42;79.54;98023.55;2281754;78;20918;-81
2022/02/05 04:18:37;;;;;;;18.07;9.77;;;;;;;4.58;78.93;98034.23;2281606;78;20986;-83
2022/02/05 04:21:38;;;;;;;16.83;9.63;;;;;;;4.62;78.65;98036.92;2281621;77;20970;-83
2022/02/05 04:24:38;;;;;;;18.87;10.00;;;;;;;4.66;78.38;98050.80;2281522;77;21360;-83
2022/02/05 04:27:38;;;;;;;21.20;10.10;;;;;;;4.71;78.36;98051.77;2277636;78;21311;-83
2022/02/05 04:30:39;;;;;;;14.67;8.47;;;;;;;4.73;78.13;98052.25;2249361;79;21331;-84
2022/02/05 04:33:39;;;;;;;14.37;8.80;;;;;;;4.75;77.68;98052.28;2249053;79;21351;-83
2022/02/05 04:36:40;;;;;;;11.93;7.77;;;;;;;4.78;77.86;98062.70;2249355;78;20919;-83
2022/02/05 04:39:48;;;;;;;11.13;6.97;;;;;;;4.79;77.52;98071.78;2249391;78;20896;-83
2022/02/05 04:43:09;;;;;;;9.50;7.17;;;;;;;4.80;77.25;98086.88;2248184;79;21030;-83
2022/02/05 04:46:16;;;;;;;10.17;6.33;;;;;;;4.80;77.44;98095.92;2245827;78;20992;-83
2022/02/05 04:55:58;;;;;;;4.40;3.47;;;;;;;4.66;76.89;98135.68;2224999;79;20980;-84
2022/02/05 05:12:14;;;;;;;1.73;1.30;;;;;;;4.21;78.23;98214.19;2226098;79;20924;-85
2022/02/05 05:15:27;;;;;;;1.33;1.10;;;;;;;3.57;80.60;98220.14;2244594;78;21008;-85
2022/02/05 05:21:32;;;;;;;2.73;2.10;;;;;;;2.78;84.34;98222.82;2246991;78;20996;-84
2022/02/05 05:24:33;;;;;;;107.63;8.87;;;;;;;2.63;85.16;98230.93;2247707;79;20976;-80
2022/02/05 05:27:33;;;;;;;8.70;2.97;;;;;;;2.71;91.30;98235.05;2248820;77;20975;-82
2022/02/05 05:30:34;;;;;;;1.63;1.53;;;;;;;3.11;84.23;98263.86;2279790;77;20981;-82
2022/02/05 05:33:34;;;;;;;3.40;2.43;;;;;;;2.78;83.85;98249.88;2281587;77;21139;-85
2022/02/05 05:36:46;;;;;;;1.20;1.10;;;;;;;2.60;83.48;98250.53;2260579;78;21322;-85
2022/02/05 05:43:00;;;;;;;1.17;0.90;;;;;;;2.45;84.32;98260.78;2249400;79;21047;-84
2022/02/05 05:46:15;;;;;;;2.47;1.10;;;;;;;2.45;84.57;98279.23;2253657;78;20973;-83
2022/02/05 05:55:18;;;;;;;2.17;1.40;;;;;;;2.50;84.35;98295.72;2259572;78;20957;-87
2022/02/05 05:58:18;;;;;;;1.50;1.30;;;;;;;2.48;84.26;98318.85;2280810;78;20934;-84
2022/02/05 06:01:19;;;;;;;4.23;2.90;;;;;;;2.50;84.41;98313.75;2281920;77;21372;-84
2022/02/05 06:04:19;;;;;;;3.10;2.07;;;;;;;2.48;84.20;98322.71;2281765;77;20966;-84
2022/02/05 06:07:20;;;;;;;2.10;1.83;;;;;;;2.45;84.05;98330.75;2281802;78;20992;-83
2022/02/05 06:10:20;;;;;;;2.10;2.00;;;;;;;2.42;83.99;98332.80;2281840;77;20954;-85
2022/02/05 06:13:21;;;;;;;4.33;2.57;;;;;;;2.38;83.64;98345.11;2282049;77;20934;-84
2022/02/05 06:16:29;;;;;;;2.93;2.10;;;;;;;2.32;83.41;98360.75;2259608;78;20981;-84
2022/02/05 06:19:26;;;;;;;2.40;2.20;;;;;;;2.21;83.30;98377.09;2279180;78;21060;-86
2022/02/05 06:22:26;;;;;;;2.07;1.40;;;;;;;2.10;83.12;98375.41;2281436;77;20915;-83
2022/02/05 06:25:27;;;;;;;1.67;1.40;;;;;;;2.03;83.36;98394.03;2281210;77;20969;-83
2022/02/05 06:28:27;;;;;;;3.77;2.77;;;;;;;1.99;83.54;98394.73;2273601;77;21046;-84
2022/02/05 06:31:28;;;;;;;4.63;2.67;;;;;;;2.00;83.23;98390.05;2248798;78;21023;-84
2022/02/05 06:34:28;;;;;;;2.87;1.80;;;;;;;2.02;83.09;98400.00;2249302;78;21062;-84
2022/02/05 06:37:29;;;;;;;4.90;2.20;;;;;;;2.04;82.64;98412.52;2248540;79;20924;-83
2022/02/05 06:40:29;;;;;;;3.80;1.87;;;;;;;2.07;82.18;98421.64;2248672;78;20920;-84
2022/02/05 06:43:30;;;;;;;6.27;2.37;;;;;;;2.10;81.97;98437.20;2249074;79;21015;-83
2022/02/05 06:46:30;;;;;;;4.33;2.07;;;;;;;2.14;81.06;98445.92;2249674;79;20935;-81
2022/02/05 06:49:31;;;;;;;3.70;1.80;;;;;;;2.19;81.24;98440.54;2248453;78;20956;-84
2022/02/05 06:52:31;;;;;;;3.80;2.00;;;;;;;2.22;80.82;98447.09;2247833;78;21315;-84
2022/02/05 06:55:32;;;;;;;9.13;2.20;;;;;;;2.24;80.66;98450.61;2248551;78;20971;-83
2022/02/05 06:58:32;;;;;;;3.87;1.30;;;;;;;2.29;80.16;98455.94;2248568;78;20968;-83
2022/02/05 07:01:33;;;;;;;4.13;2.53;;;;;;;2.31;80.14;98450.02;2250142;78;21004;-83
2022/02/05 07:04:33;;;;;;;4.10;2.53;;;;;;;2.31;80.54;98465.47;2247442;78;21019;-84
2022/02/05 07:07:34;;;;;;;5.17;3.00;;;;;;;2.32;80.91;98458.62;2246906;79;20975;-84
2022/02/05 07:10:34;;;;;;;5.93;3.87;;;;;;;2.34;80.60;98462.13;2247948;78;20948;-82
2022/02/05 07:13:34;;;;;;;7.47;4.70;;;;;;;2.37;79.49;98468.28;2248252;78;20995;-83
2022/02/05 07:16:39;;;;;;;7.43;4.30;;;;;;;2.41;80.13;98476.59;2247356;78;20972;-84
2022/02/05 07:23:13;;;;;;;9.50;4.00;;;;;;;2.49;78.25;98476.47;2225393;79;21007;-83
2022/02/05 07:32:15;;;;;;;8.87;4.73;;;;;;;2.69;77.97;98484.09;2258651;78;20961;-86
2022/02/05 07:35:16;;;;;;;11.00;3.93;;;;;;;2.74;77.29;98496.33;2280080;77;21053;-84
2022/02/05 07:38:17;;;;;;;8.90;4.60;;;;;;;2.80;78.09;98487.94;2279902;77;20994;-83
2022/02/05 07:41:17;;;;;;;7.47;3.67;;;;;;;2.92;77.56;98494.83;2280130;78;21306;-83
2022/02/05 07:44:18;;;;;;;6.20;2.93;;;;;;;3.07;77.04;98504.81;2281802;78;21323;-83
2022/02/05 07:47:21;;;;;;;9.33;4.37;;;;;;;3.05;76.98;98515.48;2282231;78;20960;-83
2022/02/05 07:50:21;;;;;;;9.23;4.77;;;;;;;2.95;77.75;98530.16;2280606;78;21061;-83
2022/02/05 07:53:21;;;;;;;9.73;4.53;;;;;;;2.84;78.89;98523.31;2280428;77;20985;-82
2022/02/05 07:56:23;;;;;;;12.20;6.40;;;;;;;2.70;79.40;98524.51;2282077;77;20961;-83
2022/02/05 07:59:24;;;;;;;15.17;7.90;;;;;;;2.63;79.88;98527.67;2282062;77;20998;-84
2022/02/05 08:02:24;;;;;;;14.13;7.23;;;;;;;2.62;80.22;98540.97;2281987;77;20961;-84
2022/02/05 08:05:25;;;;;;;12.43;5.70;;;;;;;2.62;80.08;98550.40;2281477;77;21371;-83
2022/02/05 08:08:28;;;;;;;8.90;5.60;;;;;;;2.69;80.29;98545.94;2282167;77;20997;-84
2022/02/05 08:11:38;;;;;;;13.50;6.60;;;;;;;2.80;80.32;98553.67;2281157;78;20989;-83
2022/02/05 08:14:34;;;;;;;14.30;6.53;;;;;;;2.88;80.13;98552.26;2280367;77;20961;-83
2022/02/05 08:17:35;;;;;;;16.63;6.47;;;;;;;2.95;79.21;98555.53;2281064;77;20977;-84
2022/02/05 08:20:35;;;;;;;9.67;5.00;;;;;;;3.04;78.78;98561.02;2280221;78;21009;-85
2022/02/05 08:23:35;;;;;;;9.77;5.00;;;;;;;3.11;77.72;98560.42;2281499;77;20981;-84
2022/02/05 08:26:37;;;;;;;8.77;4.73;;;;;;;3.16;77.65;98561.47;2279816;77;21249;-84
2022/02/05 08:29:43;;;;;;;15.63;7.57;;;;;;;3.37;76.91;98565.23;2266099;77;21079;-83
2022/02/05 08:32:40;;;;;;;12.27;5.93;;;;;;;3.52;76.45;98567.50;2248144;76;21050;-84
2022/02/05 08:38:44;;;;;;;6.90;4.37;;;;;;;3.65;74.22;98570.97;2225943;79;20975;-81
2022/02/05 08:41:44;;;;;;;6.77;3.60;;;;;;;3.72;74.32;98572.06;2248959;78;20950;-81
2022/02/05 08:44:45;;;;;;;7.57;3.27;;;;;;;3.74;72.91;98580.73;2248834;79;20944;-83
2022/02/05 08:47:45;;;;;;;12.07;4.57;;;;;;;3.76;72.92;98582.95;2249621;78;20999;-83
2022/02/05 08:50:46;;;;;;;8.00;3.43;;;;;;;3.78;73.66;98590.34;2249482;78;21095;-83
2022/02/05 08:53:47;;;;;;;6.50;3.83;;;;;;;3.83;72.80;98588.38;2250159;78;20947;-83
2022/02/05 08:56:52;;;;;;;9.37;3.73;;;;;;;3.89;73.78;98595.45;2226081;79;21055;-83
2022/02/05 09:00:01;;;;;;;9.07;3.43;;;;;;;3.99;73.19;98585.02;2250342;79;21074;-83
2022/02/05 09:03:02;;;;;;;9.07;3.80;;;;;;;4.01;71.57;98593.28;2249560;76;20955;-84
2022/02/05 09:06:02;;;;;;;14.80;5.67;;;;;;;3.98;71.90;98600.05;2249428;79;21549;-84
2022/02/05 09:09:13;;;;;;;12.23;5.83;;;;;;;3.90;71.71;98607.95;2250077;79;21047;-84
2022/02/05 09:12:19;;;;;;;11.67;4.73;;;;;;;3.86;72.04;98613.42;2249226;79;21019;-81
2022/02/05 09:15:16;;;;;;;13.60;4.23;;;;;;;3.83;71.83;98619.78;2249128;79;21034;-83
2022/02/05 09:18:18;;;;;;;11.30;5.23;;;;;;;3.84;71.90;98619.83;2226866;79;20979;-83
2022/02/05 09:21:19;;;;;;;10.13;4.13;;;;;;;3.82;71.18;98630.52;2248183;78;20987;-82
2022/02/05 09:24:19;;;;;;;9.53;3.90;;;;;;;3.86;71.65;98624.17;2247573;79;21403;-82
2022/02/05 09:27:20;;;;;;;11.23;5.23;;;;;;;3.90;71.03;98629.91;2248281;78;21414;-83
2022/02/05 09:30:29;;;;;;;12.50;5.40;;;;;;;3.94;71.53;98622.73;2248035;77;20998;-83
2022/02/05 09:36:26;;;;;;;16.60;6.23;;;;;;;4.13;69.35;98635.44;2226981;79;21039;-84
2022/02/05 09:39:27;;;;;;;17.37;8.30;;;;;;;4.21;71.02;98623.66;2248475;79;21038;-84
2022/02/05 09:42:27;;;;;;;13.00;6.13;;;;;;;4.37;70.53;98627.66;2248541;78;20924;-83
2022/02/05 09:45:28;;;;;;;28.90;10.00;;;;;;;4.42;68.67;98629.56;2248035;78;21410;-83
2022/02/05 09:48:30;;;;;;;14.37;7.57;;;;;;;4.44;69.46;98621.44;2248176;79;21542;-84
2022/02/05 09:51:34;;;;;;;12.53;6.45;;;;;;;4.48;68.52;98621.13;2248842;77;21011;-83
2022/02/05 09:54:39;;;;;;;12.60;4.87;;;;;;;4.53;69.27;98614.39;2227320;79;21015;-84
2022/02/05 09:57:40;;;;;;;10.33;5.17;;;;;;;4.57;68.11;98610.20;2247714;78;20987;-83
2022/02/05 10:00:42;;;;;;;15.63;7.50;;;;;;;4.48;68.28;98615.95;2247885;78;21015;-84
2022/02/05 10:03:43;;;;;;;13.67;6.10;;;;;;;4.47;67.76;98616.78;2248007;78;20939;-84
2022/02/05 10:06:43;;;;;;;20.73;9.33;;;;;;;4.46;68.91;98618.49;2248195;78;21438;-84
2022/02/05 10:09:44;;;;;;;26.37;10.67;;;;;;;4.43;68.90;98620.98;2249370;78;20940;-83
2022/02/05 10:12:44;;;;;;;20.80;7.77;;;;;;;4.36;68.99;98616.44;2249439;79;20940;-84
2022/02/05 10:15:50;;;;;;;26.13;8.27;;;;;;;4.29;68.56;98620.91;2250420;78;21024;-83
2022/02/05 10:18:47;;;;;;;19.40;6.93;;;;;;;4.31;68.73;98619.67;2249711;79;20932;-84
2022/02/05 10:21:48;;;;;;;14.60;4.47;;;;;;;4.29;68.80;98620.91;2249771;78;21011;-86
2022/02/05 10:24:48;;;;;;;10.23;4.63;;;;;;;4.26;67.94;98624.69;2250306;78;20999;-84
2022/02/05 10:27:49;;;;;;;8.77;4.13;;;;;;;4.23;68.87;98620.70;2249556;78;21034;-84
2022/02/05 10:30:52;;;;;;;11.10;4.23;;;;;;;4.20;69.17;98613.27;2272123;78;20962;-84
2022/02/05 10:33:52;;;;;;;10.90;4.97;;;;;;;4.18;69.52;98618.80;2281922;78;20985;-83
2022/02/05 10:43:05;;;;;;;15.47;5.60;;;;;;;4.35;67.68;98616.39;2260142;78;21069;-84
2022/02/05 10:46:05;;;;;;;19.93;8.17;;;;;;;4.36;67.57;98615.56;2281062;77;21013;-83
2022/02/05 10:49:06;;;;;;;21.50;9.77;;;;;;;4.44;67.77;98612.39;2281188;77;20954;-85
2022/02/05 10:52:07;;;;;;;21.97;8.83;;;;;;;4.51;67.89;98616.47;2281989;78;20964;-84
2022/02/05 10:55:22;;;;;;;15.50;5.83;;;;;;;4.61;67.13;98624.56;2281375;77;20945;-81
2022/02/05 10:58:20;;;;;;;16.23;6.20;;;;;;;4.62;67.70;98615.10;2280267;78;21045;-85
2022/02/05 11:07:50;;;;;;;14.73;5.23;;;;;;;4.96;65.10;98617.02;2281118;78;21071;-84
2022/02/05 11:20:13;;;;;;;9.37;4.50;;;;;;;5.17;64.86;98621.95;2278028;78;21037;-84
2022/02/05 11:23:13;;;;;;;11.47;4.87;;;;;;;5.17;63.97;98614.19;2281195;77;20981;-84
2022/02/05 11:26:14;;;;;;;14.13;5.07;;;;;;;5.11;63.71;98618.77;2281513;77;21321;-84
2022/02/05 11:29:14;;;;;;;9.93;4.77;;;;;;;5.03;63.44;98610.77;2281821;77;21427;-84
2022/02/05 11:32:15;;;;;;;14.23;6.20;;;;;;;5.01;63.00;98610.27;2291471;78;21386;-84
2022/02/05 11:38:20;;;;;;;10.65;5.03;;;;;;;4.91;63.54;98624.64;2255785;79;20995;-83
2022/02/05 11:41:21;;;;;;;11.77;5.50;;;;;;;4.95;64.01;98626.48;2284643;78;20983;-84
2022/02/05 11:44:22;;;;;;;13.00;7.30;;;;;;;4.99;64.11;98628.75;2290509;78;20921;-85
2022/02/05 11:50:25;;;;;;;17.37;7.20;;;;;;;5.21;63.55;98610.89;2268569;78;21039;-84
2022/02/05 11:53:25;;;;;;;18.43;8.03;;;;;;;5.34;62.38;98618.17;2290851;78;20959;-83
2022/02/05 11:56:26;;;;;;;23.90;9.87;;;;;;;5.55;62.93;98598.06;2291070;78;20904;-83
2022/02/05 11:59:26;;;;;;;25.70;10.47;;;;;;;5.59;62.67;98596.44;2291165;78;21031;-83
2022/02/05 12:02:27;;;;;;;19.60;7.67;;;;;;;5.58;60.60;98602.03;2290816;78;20980;-83
2022/02/05 12:05:31;;;;;;;17.23;6.80;;;;;;;5.58;61.82;98599.44;2290317;78;20984;-83
2022/02/05 12:08:30;;;;;;;23.87;10.20;;;;;;;5.50;61.39;98597.06;2289273;78;20987;-82
2022/02/05 12:11:34;;;;;;;8.87;3.93;;;;;;;5.37;61.17;98611.38;2289097;78;21103;-82
2022/02/05 12:14:35;;;;;;;14.60;6.07;;;;;;;5.19;62.74;98626.34;2289108;78;21414;-73
2022/02/05 12:17:39;;;;;;;13.60;5.37;;;;;;;4.95;64.32;98656.23;2287980;78;21418;-82
2022/02/05 12:20:40;;;;;;;9.57;5.63;;;;;;;4.65;66.75;98644.92;2265667;78;21053;-84
2022/02/05 12:26:50;;;;;;;8.03;4.60;;;;;;;3.90;70.51;98693.17;2265986;78;21026;-84
2022/02/05 12:32:58;;;;;;;7.47;4.35;;;;;;;2.65;79.13;98657.46;2249764;79;20975;-83
2022/02/05 12:39:04;;;;;;;18.27;9.13;;;;;;;2.42;80.76;98666.81;2261173;78;21017;-84
2022/02/05 12:45:08;;;;;;;14.03;8.40;;;;;;;2.55;80.98;98659.64;2261290;78;21029;-84
2022/02/05 12:48:10;;;;;;;16.23;7.43;;;;;;;2.62;81.03;98661.20;2281356;78;21132;-83
2022/02/05 12:51:10;;;;;;;15.63;8.30;;;;;;;2.72;80.89;98660.34;2281636;77;20934;-84
2022/02/05 12:54:12;;;;;;;11.37;8.07;;;;;;;2.69;80.90;98657.64;2282201;78;20895;-84
2022/02/05 12:57:13;;;;;;;12.73;6.83;;;;;;;2.69;81.73;98660.63;2281665;77;21006;-83
2022/02/05 13:00:17;;;;;;;18.30;9.43;;;;;;;2.66;81.37;98666.95;2281213;77;20985;-84
2022/02/05 13:03:16;;;;;;;14.27;7.07;;;;;;;2.61;81.60;98655.58;2281493;77;21424;-84
2022/02/05 13:06:16;;;;;;;13.93;6.40;;;;;;;2.63;81.97;98657.40;2281734;77;20958;-83
2022/02/05 13:09:17;;;;;;;15.40;6.73;;;;;;;2.76;82.62;98647.16;2281940;77;20985;-83
2022/02/05 13:12:20;;;;;;;14.37;6.73;;;;;;;2.90;82.27;98651.56;2282459;78;20950;-82
2022/02/05 13:18:42;;;;;;;8.23;4.90;;;;;;;3.17;82.57;98653.50;2261357;78;21029;-82
2022/02/05 13:25:17;;;;;;;15.20;8.20;;;;;;;3.41;81.68;98647.08;2282131;77;21030;-83
2022/02/05 13:34:25;;;;;;;21.63;10.57;;;;;;;3.79;80.76;98661.81;2248684;78;20967;-84
2022/02/05 13:37:26;;;;;;;17.50;7.90;;;;;;;4.03;80.47;98654.91;2249528;77;21342;-84
2022/02/05 13:40:33;;;;;;;12.35;6.58;;;;;;;4.28;79.49;98660.91;2228107;79;20948;-81
2022/02/05 13:43:44;;;;;;;8.33;4.30;;;;;;;4.65;78.97;98647.52;2249390;79;21012;-83
2022/02/05 13:46:45;;;;;;;6.23;3.93;;;;;;;4.97;75.59;98657.16;2249690;79;20948;-80
2022/02/05 13:49:45;;;;;;;7.63;4.57;;;;;;;5.28;75.08;98650.34;2249920;78;20900;-82
2022/02/05 13:52:51;;;;;;;13.47;6.50;;;;;;;5.35;73.81;98658.75;2227279;79;21388;-78
2022/02/05 13:55:52;;;;;;;9.25;6.12;;;;;;;5.22;74.70;98668.28;2249514;79;20968;-82
2022/02/05 13:58:52;;;;;;;14.03;6.33;;;;;;;5.06;75.33;98674.67;2249556;78;21378;-82
2022/02/05 14:01:53;;;;;;;14.70;8.20;;;;;;;4.88;76.14;98673.68;2249733;79;20951;-84
2022/02/05 14:04:53;;;;;;;12.00;5.63;;;;;;;4.63;76.97;98672.02;2249955;78;20927;-85
2022/02/05 14:07:54;;;;;;;10.67;5.80;;;;;;;4.60;76.03;98677.52;2250262;79;20971;-83
2022/02/05 14:10:54;;;;;;;22.60;9.80;;;;;;;4.30;75.84;98679.92;2250394;78;20932;-85
2022/02/05 14:13:55;;;;;;;19.20;9.03;;;;;;;4.01;76.60;98682.80;2250194;78;20932;-83
2022/02/05 14:16:56;;;;;;;19.57;8.97;;;;;;;3.96;77.18;98692.09;2250544;78;20967;-83
2022/02/05 14:19:56;;;;;;;22.77;11.77;;;;;;;3.86;77.49;98683.14;2250211;79;20896;-84
2022/02/05 14:22:57;;;;;;;36.70;15.97;;;;;;;3.76;77.81;98686.22;2250331;79;20993;-83
2022/02/05 14:26:04;;;;;;;36.17;15.70;;;;;;;3.81;78.26;98686.86;2250450;79;20912;-85
2022/02/05 14:29:01;;;;;;;21.73;10.57;;;;;;;4.05;78.11;98685.55;2249861;79;21113;-84
2022/02/05 14:41:26;;;;;;;26.43;11.73;;;;;;;4.24;75.57;98701.68;2292896;78;20967;-83
2022/02/05 14:44:26;;;;;;;17.23;8.13;;;;;;;4.03;76.12;98731.52;2292856;78;20924;-83
2022/02/05 14:47:27;;;;;;;18.33;6.30;;;;;;;3.81;76.84;98753.98;2292539;78;21049;-82
2022/02/05 14:50:27;;;;;;;9.23;4.97;;;;;;;3.30;78.98;98760.61;2292327;78;20979;-83
2022/02/05 14:53:28;;;;;;;9.10;4.43;;;;;;;2.80;79.33;98747.00;2292392;78;20968;-84
2022/02/05 14:56:28;;;;;;;20.57;9.03;;;;;;;2.41;79.78;98747.48;2291459;78;20954;-83
2022/02/05 14:59:29;;;;;;;14.53;7.37;;;;;;;2.15;80.61;98755.39;2291925;78;21633;-84
2022/02/05 15:02:29;;;;;;;14.27;5.40;;;;;;;2.01;81.01;98759.06;2291888;78;21322;-83
2022/02/05 15:05:31;;;;;;;12.67;6.50;;;;;;;1.88;82.09;98750.80;2291892;78;21375;-85
2022/02/05 15:08:31;;;;;;;14.00;5.60;;;;;;;1.74;82.24;98751.87;2291306;78;21062;-85
2022/02/05 15:11:32;;;;;;;11.13;6.10;;;;;;;1.63;82.69;98756.92;2292080;78;21023;-85
2022/02/05 15:14:33;;;;;;;15.53;7.83;;;;;;;1.54;82.54;98759.08;2292659;78;21279;-85
2022/02/05 15:17:40;;;;;;;19.93;9.57;;;;;;;1.45;82.68;98770.23;2292725;78;20948;-84
2022/02/05 15:20:35;;;;;;;15.97;8.20;;;;;;;1.39;82.21;98772.52;2291384;77;21023;-84
2022/02/05 15:23:36;;;;;;;13.80;7.90;;;;;;;1.33;82.43;98777.38;2292506;78;20984;-83
2022/02/05 15:26:36;;;;;;;12.50;6.90;;;;;;;1.27;82.51;98781.42;2292322;78;21319;-85
2022/02/05 15:29:37;;;;;;;13.27;8.37;;;;;;;1.24;82.90;98790.68;2291883;78;20968;-86
2022/02/05 15:32:40;;;;;;;19.37;9.73;;;;;;;1.24;82.57;98794.13;2291608;78;21079;-85
2022/02/05 15:35:40;;;;;;;31.73;14.07;;;;;;;1.27;82.63;98799.83;2291447;78;21082;-85
2022/02/05 15:38:51;;;;;;;26.33;12.77;;;;;;;1.30;82.91;98800.38;2291908;78;20935;-85
2022/02/05 15:45:05;;;;;;;16.93;7.50;;;;;;;1.40;83.10;98820.58;2292264;78;21031;-85
2022/02/05 15:48:06;;;;;;;32.80;10.60;;;;;;;1.43;83.16;98824.58;2292327;78;20936;-86
2022/02/05 15:51:06;;;;;;;26.03;11.13;;;;;;;1.40;82.85;98826.59;2292115;78;21304;-86
2022/02/05 15:54:11;;;;;;;35.57;13.73;;;;;;;1.34;83.18;98836.59;2292118;78;21300;-86
2022/02/05 16:03:21;;;;;;;30.20;13.50;;;;;;;1.17;84.74;98857.64;2269460;78;20996;-84
2022/02/05 16:06:22;;;;;;;41.87;15.63;;;;;;;1.17;85.58;98866.64;2292648;78;20937;-84
2022/02/05 16:09:22;;;;;;;44.67;16.97;;;;;;;1.25;85.15;98870.88;2291527;78;21052;-84
2022/02/05 16:12:23;;;;;;;35.33;16.33;;;;;;;1.32;85.15;98878.08;2291543;78;21000;-85
2022/02/05 16:15:23;;;;;;;30.73;11.90;;;;;;;1.38;85.82;98893.80;2292677;78;20897;-84
2022/02/05 16:18:24;;;;;;;19.23;9.63;;;;;;;1.42;85.64;98885.83;2292495;78;20905;-84
2022/02/05 16:21:24;;;;;;;20.50;9.97;;;;;;;1.46;85.33;98897.63;2292551;78;20948;-84
2022/02/05 16:24:25;;;;;;;25.07;12.13;;;;;;;1.47;86.15;98890.79;2292505;78;21351;-84
2022/02/05 16:27:25;;;;;;;38.07;14.53;;;;;;;1.46;86.77;98881.31;2292819;78;21343;-84
2022/02/05 16:30:27;;;;;;;26.17;11.67;;;;;;;1.41;86.37;98896.52;2291471;78;20892;-84
2022/02/05 16:33:31;;;;;;;24.77;10.93;;;;;;;1.37;86.33;98895.02;2282559;78;20978;-84
2022/02/05 16:36:31;;;;;;;25.90;11.67;;;;;;;1.36;86.79;98897.11;2281874;78;21523;-85
2022/02/05 16:39:33;;;;;;;15.90;8.87;;;;;;;1.33;86.19;98905.56;2282715;78;21017;-83
2022/02/05 16:42:33;;;;;;;18.47;10.17;;;;;;;1.31;86.04;98908.86;2282427;78;21017;-83
2022/02/05 16:45:34;;;;;;;24.63;10.10;;;;;;;1.26;85.85;98909.52;2282596;78;20906;-85
2022/02/05 16:48:35;;;;;;;33.23;14.10;;;;;;;1.21;85.19;98911.39;2282639;78;21048;-85
2022/02/05 16:51:36;;;;;;;35.43;13.90;;;;;;;1.17;85.05;98911.64;2282112;78;20981;-85
2022/02/05 16:54:37;;;;;;;35.47;14.33;;;;;;;1.14;84.94;98919.60;2281885;78;21428;-84
2022/02/05 16:57:37;;;;;;;36.73;14.97;;;;;;;1.12;84.91;98923.78;2281711;78;20915;-84
2022/02/05 17:00:38;;;;;;;36.93;14.27;;;;;;;1.09;84.79;98929.66;2281620;78;20956;-86
2022/02/05 17:03:38;;;;;;;28.50;14.57;;;;;;;1.05;84.96;98932.88;2282244;78;20926;-84
2022/02/05 17:06:39;;;;;;;29.90;14.23;;;;;;;1.00;84.96;98937.31;2282492;78;21336;-85
2022/02/05 17:09:43;;;;;;;36.67;16.53;;;;;;;0.98;85.07;98935.06;2282478;78;21372;-84
2022/02/05 17:12:42;;;;;;;30.00;12.33;;;;;;;0.92;85.05;98939.49;2282410;78;21045;-84
2022/02/05 17:15:42;;;;;;;31.13;14.10;;;;;;;0.91;85.29;98935.16;2283246;78;20911;-84
2022/02/05 17:18:43;;;;;;;23.60;10.37;;;;;;;0.87;85.20;98944.80;2281953;78;20981;-84
2022/02/05 17:21:43;;;;;;;15.90;8.20;;;;;;;0.82;85.24;98949.67;2282418;78;20937;-84
2022/02/05 17:24:44;;;;;;;13.10;6.83;;;;;;;0.80;85.29;98951.68;2283499;77;20990;-85